sensor_id;sensor_type;location;lat;lon;timestamp;P1;durP1;ratioP1;P2;durP2;ratioP2
39188;SDS011;24915;50.858;4.376;2023-04-01T00:00:15;17.45;;;4.13;;
39188;SDS011;24915;50.858;4.376;2023-04-01T00:02:42;13.60;;;3.90;;
39188;SDS011;24915;50.858;4.376;2023-04-01T00:05:08;16.98;;;4.32;;
39188;SDS011;24915;50.858;4.376;2023-04-01T00:07:35;19.38;;;3.92;;
39188;SDS011;24915;50.858;4.376;2023-04-01T00:10:03;17.92;;;4.30;;
39188;SDS011;24915;50.858;4.376;2023-04-01T00:12:29;17.95;;;4.25;;
39188;SDS011;24915;50.858;4.376;2023-04-01T00:14:55;16.70;;;3.95;;
39188;SDS011;24915;50.858;4.376;2023-04-01T00:17:21;17.00;;;4.40;;
39188;SDS011;24915;50.858;4.376;2023-04-01T00:19:46;16.75;;;4.68;;
39188;SDS011;24915;50.858;4.376;2023-04-01T00:22:13;17.40;;;4.60;;
39188;SDS011;24915;50.858;4.376;2023-04-01T00:24:38;12.25;;;3.97;;
39188;SDS011;24915;50.858;4.376;2023-04-01T00:27:04;24.73;;;4.30;;
39188;SDS011;24915;50.858;4.376;2023-04-01T00:29:30;13.70;;;3.90;;
39188;SDS011;24915;50.858;4.376;2023-04-01T00:31:57;16.17;;;3.65;;
39188;SDS011;24915;50.858;4.376;2023-04-01T00:34:22;13.32;;;3.67;;
39188;SDS011;24915;50.858;4.376;2023-04-01T00:36:49;16.02;;;4.40;;
39188;SDS011;24915;50.858;4.376;2023-04-01T00:39:15;9.02;;;3.45;;
39188;SDS011;24915;50.858;4.376;2023-04-01T00:41:41;8.38;;;3.13;;
39188;SDS011;24915;50.858;4.376;2023-04-01T00:44:23;14.10;;;3.78;;
39188;SDS011;24915;50.858;4.376;2023-04-01T00:46:50;15.57;;;3.35;;
39188;SDS011;24915;50.858;4.376;2023-04-01T00:49:17;13.32;;;3.22;;
39188;SDS011;24915;50.858;4.376;2023-04-01T00:51:47;8.10;;;3.30;;
39188;SDS011;24915;50.858;4.376;2023-04-01T00:54:17;8.80;;;2.90;;
39188;SDS011;24915;50.858;4.376;2023-04-01T00:56:46;8.95;;;2.22;;
39188;SDS011;24915;50.858;4.376;2023-04-01T00:59:18;7.47;;;3.17;;
39188;SDS011;24915;50.858;4.376;2023-04-01T01:01:49;6.57;;;2.35;;
39188;SDS011;24915;50.858;4.376;2023-04-01T01:04:25;7.43;;;2.95;;
39188;SDS011;24915;50.858;4.376;2023-04-01T01:07:02;13.63;;;3.38;;
39188;SDS011;24915;50.858;4.376;2023-04-01T01:13:00;7.25;;;2.05;;
39188;SDS011;24915;50.858;4.376;2023-04-01T01:16:04;7.50;;;1.98;;
39188;SDS011;24915;50.858;4.376;2023-04-01T01:18:36;5.20;;;2.05;;
39188;SDS011;24915;50.858;4.376;2023-04-01T01:29:42;6.30;;;1.48;;
39188;SDS011;24915;50.858;4.376;2023-04-01T01:37:47;2.88;;;1.48;;
39188;SDS011;24915;50.858;4.376;2023-04-01T01:40:19;3.33;;;1.92;;
39188;SDS011;24915;50.858;4.376;2023-04-01T01:42:47;3.63;;;1.75;;
39188;SDS011;24915;50.858;4.376;2023-04-01T01:45:18;6.60;;;2.20;;
39188;SDS011;24915;50.858;4.376;2023-04-01T01:47:45;5.25;;;2.00;;
39188;SDS011;24915;50.858;4.376;2023-04-01T01:50:13;2.92;;;2.30;;
39188;SDS011;24915;50.858;4.376;2023-04-01T01:52:40;6.03;;;2.47;;
39188;SDS011;24915;50.858;4.376;2023-04-01T01:55:22;7.03;;;2.90;;
39188;SDS011;24915;50.858;4.376;2023-04-01T01:57:51;3.83;;;3.40;;
39188;SDS011;24915;50.858;4.376;2023-04-01T02:00:17;9.45;;;4.40;;
39188;SDS011;24915;50.858;4.376;2023-04-01T02:02:45;11.15;;;4.80;;
39188;SDS011;24915;50.858;4.376;2023-04-01T02:05:15;9.65;;;4.60;;
39188;SDS011;24915;50.858;4.376;2023-04-01T02:07:48;12.57;;;4.60;;
39188;SDS011;24915;50.858;4.376;2023-04-01T02:10:19;10.35;;;4.60;;
39188;SDS011;24915;50.858;4.376;2023-04-01T02:12:47;11.60;;;4.30;;
39188;SDS011;24915;50.858;4.376;2023-04-01T02:15:14;13.13;;;4.85;;
39188;SDS011;24915;50.858;4.376;2023-04-01T02:17:44;8.23;;;3.75;;
39188;SDS011;24915;50.858;4.376;2023-04-01T02:20:14;11.50;;;4.72;;
39188;SDS011;24915;50.858;4.376;2023-04-01T02:22:49;11.32;;;5.00;;
39188;SDS011;24915;50.858;4.376;2023-04-01T02:25:20;12.55;;;5.07;;
39188;SDS011;24915;50.858;4.376;2023-04-01T02:27:48;5.65;;;4.68;;
39188;SDS011;24915;50.858;4.376;2023-04-01T02:30:15;11.70;;;4.53;;
39188;SDS011;24915;50.858;4.376;2023-04-01T02:32:42;12.10;;;4.25;;
39188;SDS011;24915;50.858;4.376;2023-04-01T02:35:09;11.07;;;3.88;;
39188;SDS011;24915;50.858;4.376;2023-04-01T02:37:37;16.27;;;4.38;;
39188;SDS011;24915;50.858;4.376;2023-04-01T02:40:07;13.13;;;3.50;;
39188;SDS011;24915;50.858;4.376;2023-04-01T02:42:34;10.95;;;3.70;;
39188;SDS011;24915;50.858;4.376;2023-04-01T02:45:00;13.05;;;3.63;;
39188;SDS011;24915;50.858;4.376;2023-04-01T02:47:26;12.60;;;3.88;;
39188;SDS011;24915;50.858;4.376;2023-04-01T02:49:51;9.88;;;3.50;;
39188;SDS011;24915;50.858;4.376;2023-04-01T02:52:24;15.77;;;3.58;;
39188;SDS011;24915;50.858;4.376;2023-04-01T02:54:50;9.07;;;3.53;;
39188;SDS011;24915;50.858;4.376;2023-04-01T02:57:16;11.23;;;3.95;;
39188;SDS011;24915;50.858;4.376;2023-04-01T02:59:41;11.05;;;4.38;;
39188;SDS011;24915;50.858;4.376;2023-04-01T03:02:07;9.77;;;3.95;;
39188;SDS011;24915;50.858;4.376;2023-04-01T03:04:33;9.57;;;4.38;;
39188;SDS011;24915;50.858;4.376;2023-04-01T03:06:58;9.23;;;4.00;;
39188;SDS011;24915;50.858;4.376;2023-04-01T03:09:24;12.35;;;3.72;;
39188;SDS011;24915;50.858;4.376;2023-04-01T03:11:50;10.23;;;4.43;;
39188;SDS011;24915;50.858;4.376;2023-04-01T03:14:15;9.10;;;3.60;;
39188;SDS011;24915;50.858;4.376;2023-04-01T03:16:41;9.80;;;4.50;;
39188;SDS011;24915;50.858;4.376;2023-04-01T03:19:08;14.50;;;4.85;;
39188;SDS011;24915;50.858;4.376;2023-04-01T03:21:33;12.48;;;4.88;;
39188;SDS011;24915;50.858;4.376;2023-04-01T03:23:59;10.73;;;5.13;;
39188;SDS011;24915;50.858;4.376;2023-04-01T03:26:25;8.30;;;5.05;;
39188;SDS011;24915;50.858;4.376;2023-04-01T03:28:52;14.95;;;5.35;;
39188;SDS011;24915;50.858;4.376;2023-04-01T03:31:18;13.55;;;5.80;;
39188;SDS011;24915;50.858;4.376;2023-04-01T03:33:44;8.75;;;5.32;;
39188;SDS011;24915;50.858;4.376;2023-04-01T03:36:10;13.75;;;6.22;;
39188;SDS011;24915;50.858;4.376;2023-04-01T03:38:37;12.25;;;6.32;;
39188;SDS011;24915;50.858;4.376;2023-04-01T03:41:03;16.48;;;6.53;;
39188;SDS011;24915;50.858;4.376;2023-04-01T03:43:30;17.55;;;6.97;;
39188;SDS011;24915;50.858;4.376;2023-04-01T03:45:55;19.65;;;8.05;;
39188;SDS011;24915;50.858;4.376;2023-04-01T03:48:23;11.70;;;6.63;;
39188;SDS011;24915;50.858;4.376;2023-04-01T03:50:49;18.10;;;7.18;;
39188;SDS011;24915;50.858;4.376;2023-04-01T03:53:14;20.08;;;7.53;;
39188;SDS011;24915;50.858;4.376;2023-04-01T03:55:40;18.90;;;7.90;;
39188;SDS011;24915;50.858;4.376;2023-04-01T03:58:06;16.05;;;7.15;;
39188;SDS011;24915;50.858;4.376;2023-04-01T04:00:33;20.42;;;7.35;;
39188;SDS011;24915;50.858;4.376;2023-04-01T04:02:59;16.60;;;7.32;;
39188;SDS011;24915;50.858;4.376;2023-04-01T04:05:26;19.92;;;6.97;;
39188;SDS011;24915;50.858;4.376;2023-04-01T04:07:52;12.80;;;7.03;;
39188;SDS011;24915;50.858;4.376;2023-04-01T04:10:18;21.92;;;7.20;;
39188;SDS011;24915;50.858;4.376;2023-04-01T04:12:44;21.90;;;6.88;;
39188;SDS011;24915;50.858;4.376;2023-04-01T04:15:10;18.60;;;7.15;;
39188;SDS011;24915;50.858;4.376;2023-04-01T04:17:36;18.45;;;7.70;;
39188;SDS011;24915;50.858;4.376;2023-04-01T04:20:03;19.70;;;7.43;;
39188;SDS011;24915;50.858;4.376;2023-04-01T04:22:29;17.65;;;7.20;;
39188;SDS011;24915;50.858;4.376;2023-04-01T04:24:54;15.90;;;6.45;;
39188;SDS011;24915;50.858;4.376;2023-04-01T04:27:20;16.83;;;6.03;;
39188;SDS011;24915;50.858;4.376;2023-04-01T04:29:46;11.30;;;5.63;;
39188;SDS011;24915;50.858;4.376;2023-04-01T04:32:12;10.15;;;5.60;;
39188;SDS011;24915;50.858;4.376;2023-04-01T04:34:37;12.13;;;5.22;;
39188;SDS011;24915;50.858;4.376;2023-04-01T04:37:03;6.65;;;4.47;;
39188;SDS011;24915;50.858;4.376;2023-04-01T04:39:28;7.28;;;4.40;;
39188;SDS011;24915;50.858;4.376;2023-04-01T04:41:54;7.00;;;4.03;;
39188;SDS011;24915;50.858;4.376;2023-04-01T04:44:20;6.95;;;4.10;;
39188;SDS011;24915;50.858;4.376;2023-04-01T04:46:46;9.85;;;4.07;;
39188;SDS011;24915;50.858;4.376;2023-04-01T04:49:11;6.68;;;4.13;;
39188;SDS011;24915;50.858;4.376;2023-04-01T04:51:37;9.00;;;3.70;;
39188;SDS011;24915;50.858;4.376;2023-04-01T04:54:03;6.78;;;3.88;;
39188;SDS011;24915;50.858;4.376;2023-04-01T04:56:30;9.88;;;3.63;;
39188;SDS011;24915;50.858;4.376;2023-04-01T04:58:57;6.95;;;3.72;;
39188;SDS011;24915;50.858;4.376;2023-04-01T05:01:23;4.43;;;3.80;;
39188;SDS011;24915;50.858;4.376;2023-04-01T05:03:49;3.38;;;3.08;;
39188;SDS011;24915;50.858;4.376;2023-04-01T05:06:16;7.25;;;3.65;;
39188;SDS011;24915;50.858;4.376;2023-04-01T05:08:43;4.97;;;3.55;;
39188;SDS011;24915;50.858;4.376;2023-04-01T05:11:12;4.43;;;3.90;;
39188;SDS011;24915;50.858;4.376;2023-04-01T05:13:39;4.65;;;3.65;;
39188;SDS011;24915;50.858;4.376;2023-04-01T05:16:07;11.25;;;4.88;;
39188;SDS011;24915;50.858;4.376;2023-04-01T05:21:04;8.68;;;4.68;;
39188;SDS011;24915;50.858;4.376;2023-04-01T05:23:31;6.53;;;4.40;;
39188;SDS011;24915;50.858;4.376;2023-04-01T05:25:58;10.07;;;4.80;;
39188;SDS011;24915;50.858;4.376;2023-04-01T05:28:27;7.18;;;4.20;;
39188;SDS011;24915;50.858;4.376;2023-04-01T05:30:52;9.18;;;5.50;;
39188;SDS011;24915;50.858;4.376;2023-04-01T05:33:18;10.27;;;5.80;;
39188;SDS011;24915;50.858;4.376;2023-04-01T05:35:44;7.60;;;5.07;;
39188;SDS011;24915;50.858;4.376;2023-04-01T05:38:09;9.50;;;5.57;;
39188;SDS011;24915;50.858;4.376;2023-04-01T05:40:35;8.13;;;5.68;;
39188;SDS011;24915;50.858;4.376;2023-04-01T05:43:01;12.00;;;6.22;;
39188;SDS011;24915;50.858;4.376;2023-04-01T05:45:27;10.38;;;6.65;;
39188;SDS011;24915;50.858;4.376;2023-04-01T05:47:52;11.85;;;7.35;;
39188;SDS011;24915;50.858;4.376;2023-04-01T05:50:18;13.07;;;7.20;;
39188;SDS011;24915;50.858;4.376;2023-04-01T05:52:44;13.15;;;6.40;;
39188;SDS011;24915;50.858;4.376;2023-04-01T05:55:10;15.05;;;7.53;;
39188;SDS011;24915;50.858;4.376;2023-04-01T05:57:36;17.17;;;7.88;;
39188;SDS011;24915;50.858;4.376;2023-04-01T06:00:02;12.40;;;7.93;;
39188;SDS011;24915;50.858;4.376;2023-04-01T06:02:29;17.60;;;8.35;;
39188;SDS011;24915;50.858;4.376;2023-04-01T06:05:00;12.15;;;7.75;;
39188;SDS011;24915;50.858;4.376;2023-04-01T06:07:35;17.63;;;8.45;;
39188;SDS011;24915;50.858;4.376;2023-04-01T06:10:00;13.70;;;8.43;;
39188;SDS011;24915;50.858;4.376;2023-04-01T06:27:27;12.95;;;8.75;;
39188;SDS011;24915;50.858;4.376;2023-04-01T06:54:00;10.15;;;7.72;;
39188;SDS011;24915;50.858;4.376;2023-04-01T06:56:28;24.20;;;11.48;;
39188;SDS011;24915;50.858;4.376;2023-04-01T07:01:34;17.00;;;10.25;;
39188;SDS011;24915;50.858;4.376;2023-04-01T07:04:06;11.73;;;8.15;;
39188;SDS011;24915;50.858;4.376;2023-04-01T07:09:31;17.40;;;8.20;;
39188;SDS011;24915;50.858;4.376;2023-04-01T07:12:02;12.57;;;7.20;;
39188;SDS011;24915;50.858;4.376;2023-04-01T07:14:36;10.35;;;7.10;;
39188;SDS011;24915;50.858;4.376;2023-04-01T07:19:42;7.38;;;6.20;;
39188;SDS011;24915;50.858;4.376;2023-04-01T07:25:13;7.43;;;5.70;;
39188;SDS011;24915;50.858;4.376;2023-04-01T07:27:42;14.27;;;9.32;;
39188;SDS011;24915;50.858;4.376;2023-04-01T07:32:45;5.90;;;5.00;;
39188;SDS011;24915;50.858;4.376;2023-04-01T07:41:01;8.83;;;4.97;;
39188;SDS011;24915;50.858;4.376;2023-04-01T07:46:22;7.68;;;5.03;;
39188;SDS011;24915;50.858;4.376;2023-04-01T07:55:02;9.05;;;5.35;;
39188;SDS011;24915;50.858;4.376;2023-04-01T08:00:08;6.50;;;3.28;;
39188;SDS011;24915;50.858;4.376;2023-04-01T08:03:12;8.68;;;2.75;;
39188;SDS011;24915;50.858;4.376;2023-04-01T08:05:50;3.20;;;2.67;;
39188;SDS011;24915;50.858;4.376;2023-04-01T08:14:04;3.30;;;3.00;;
39188;SDS011;24915;50.858;4.376;2023-04-01T08:16:43;2.75;;;2.30;;
39188;SDS011;24915;50.858;4.376;2023-04-01T08:22:12;2.38;;;1.92;;
39188;SDS011;24915;50.858;4.376;2023-04-01T08:24:47;4.72;;;2.00;;
39188;SDS011;24915;50.858;4.376;2023-04-01T08:27:23;6.47;;;3.30;;
39188;SDS011;24915;50.858;4.376;2023-04-01T08:30:06;1.90;;;1.77;;
39188;SDS011;24915;50.858;4.376;2023-04-01T08:32:46;2.90;;;2.08;;
39188;SDS011;24915;50.858;4.376;2023-04-01T08:35:20;2.08;;;1.90;;
39188;SDS011;24915;50.858;4.376;2023-04-01T08:37:57;8.05;;;2.38;;
39188;SDS011;24915;50.858;4.376;2023-04-01T08:46:22;3.00;;;2.08;;
39188;SDS011;24915;50.858;4.376;2023-04-01T08:51:38;3.05;;;2.30;;
39188;SDS011;24915;50.858;4.376;2023-04-01T08:54:33;3.67;;;2.03;;
39188;SDS011;24915;50.858;4.376;2023-04-01T09:00:21;7.72;;;5.28;;
39188;SDS011;24915;50.858;4.376;2023-04-01T09:05:57;3.17;;;2.85;;
39188;SDS011;24915;50.858;4.376;2023-04-01T09:29:36;8.88;;;5.80;;
39188;SDS011;24915;50.858;4.376;2023-04-01T09:42:41;10.30;;;5.78;;
39188;SDS011;24915;50.858;4.376;2023-04-01T09:45:29;13.88;;;7.82;;
39188;SDS011;24915;50.858;4.376;2023-04-01T10:13:00;8.87;;;5.47;;
39188;SDS011;24915;50.858;4.376;2023-04-01T11:31:35;4.15;;;2.42;;
39188;SDS011;24915;50.858;4.376;2023-04-01T11:36:40;5.40;;;3.13;;
39188;SDS011;24915;50.858;4.376;2023-04-01T11:39:29;4.10;;;2.53;;
39188;SDS011;24915;50.858;4.376;2023-04-01T11:42:17;2.92;;;2.22;;
39188;SDS011;24915;50.858;4.376;2023-04-01T12:00:01;2.85;;;2.08;;
39188;SDS011;24915;50.858;4.376;2023-04-01T12:02:46;3.35;;;2.30;;
39188;SDS011;24915;50.858;4.376;2023-04-01T12:05:54;2.42;;;2.22;;
39188;SDS011;24915;50.858;4.376;2023-04-01T12:08:48;5.68;;;2.90;;
39188;SDS011;24915;50.858;4.376;2023-04-01T12:14:19;5.03;;;2.70;;
39188;SDS011;24915;50.858;4.376;2023-04-01T12:20:10;2.38;;;2.00;;
39188;SDS011;24915;50.858;4.376;2023-04-01T12:40:20;3.42;;;2.88;;
39188;SDS011;24915;50.858;4.376;2023-04-01T13:07:15;3.38;;;3.08;;
39188;SDS011;24915;50.858;4.376;2023-04-01T13:09:59;5.93;;;3.33;;
39188;SDS011;24915;50.858;4.376;2023-04-01T13:15:23;2.83;;;2.63;;
39188;SDS011;24915;50.858;4.376;2023-04-01T13:20:53;6.78;;;3.13;;
39188;SDS011;24915;50.858;4.376;2023-04-01T13:37:04;6.03;;;4.05;;
39188;SDS011;24915;50.858;4.376;2023-04-01T13:42:28;9.80;;;6.25;;
39188;SDS011;24915;50.858;4.376;2023-04-01T13:45:16;11.23;;;3.65;;
39188;SDS011;24915;50.858;4.376;2023-04-01T13:48:08;3.25;;;2.95;;
39188;SDS011;24915;50.858;4.376;2023-04-01T14:02:14;4.75;;;2.80;;
39188;SDS011;24915;50.858;4.376;2023-04-01T14:07:52;1.92;;;1.60;;
39188;SDS011;24915;50.858;4.376;2023-04-01T14:13:13;3.47;;;2.38;;
39188;SDS011;24915;50.858;4.376;2023-04-01T14:15:55;3.08;;;2.28;;
39188;SDS011;24915;50.858;4.376;2023-04-01T14:29:50;1.70;;;1.60;;
39188;SDS011;24915;50.858;4.376;2023-04-01T14:32:49;3.38;;;1.70;;
39188;SDS011;24915;50.858;4.376;2023-04-01T14:35:25;3.20;;;2.80;;
39188;SDS011;24915;50.858;4.376;2023-04-01T14:41:00;2.15;;;1.90;;
39188;SDS011;24915;50.858;4.376;2023-04-01T14:49:55;3.45;;;2.50;;
39188;SDS011;24915;50.858;4.376;2023-04-01T14:52:36;2.65;;;2.28;;
39188;SDS011;24915;50.858;4.376;2023-04-01T14:55:51;3.55;;;2.83;;
39188;SDS011;24915;50.858;4.376;2023-04-01T14:58:04;3.35;;;1.90;;
39188;SDS011;24915;50.858;4.376;2023-04-01T15:03:29;5.90;;;1.90;;
39188;SDS011;24915;50.858;4.376;2023-04-01T15:06:11;5.47;;;3.63;;
39188;SDS011;24915;50.858;4.376;2023-04-01T15:09:07;11.30;;;4.43;;
39188;SDS011;24915;50.858;4.376;2023-04-01T15:11:44;7.70;;;2.67;;
39188;SDS011;24915;50.858;4.376;2023-04-01T15:20:10;1.90;;;1.80;;
39188;SDS011;24915;50.858;4.376;2023-04-01T15:39:14;4.93;;;3.85;;
39188;SDS011;24915;50.858;4.376;2023-04-01T15:55:42;2.95;;;2.33;;
39188;SDS011;24915;50.858;4.376;2023-04-01T16:09:34;4.93;;;3.00;;
39188;SDS011;24915;50.858;4.376;2023-04-01T16:12:15;4.45;;;2.80;;
39188;SDS011;24915;50.858;4.376;2023-04-01T16:15:03;1.92;;;1.60;;
39188;SDS011;24915;50.858;4.376;2023-04-01T16:17:56;2.33;;;1.90;;
39188;SDS011;24915;50.858;4.376;2023-04-01T16:23:41;7.95;;;3.67;;
39188;SDS011;24915;50.858;4.376;2023-04-01T16:31:54;8.93;;;2.58;;
39188;SDS011;24915;50.858;4.376;2023-04-01T16:34:36;16.30;;;2.60;;
39188;SDS011;24915;50.858;4.376;2023-04-01T16:39:50;3.58;;;2.80;;
39188;SDS011;24915;50.858;4.376;2023-04-01T16:45:32;16.98;;;6.72;;
39188;SDS011;24915;50.858;4.376;2023-04-01T16:48:15;22.67;;;6.43;;
39188;SDS011;24915;50.858;4.376;2023-04-01T16:53:41;12.95;;;6.20;;
39188;SDS011;24915;50.858;4.376;2023-04-01T17:01:53;10.57;;;6.70;;
39188;SDS011;24915;50.858;4.376;2023-04-01T17:18:37;12.88;;;8.15;;
39188;SDS011;24915;50.858;4.376;2023-04-01T17:23:37;10.40;;;6.53;;
39188;SDS011;24915;50.858;4.376;2023-04-01T17:34:55;10.18;;;5.53;;
39188;SDS011;24915;50.858;4.376;2023-04-01T17:40:11;7.10;;;5.38;;
39188;SDS011;24915;50.858;4.376;2023-04-01T17:51:28;4.65;;;3.42;;
39188;SDS011;24915;50.858;4.376;2023-04-01T17:59:44;7.45;;;5.10;;
39188;SDS011;24915;50.858;4.376;2023-04-01T18:02:22;5.85;;;4.97;;
39188;SDS011;24915;50.858;4.376;2023-04-01T18:15:52;16.42;;;10.05;;
39188;SDS011;24915;50.858;4.376;2023-04-01T18:26:42;15.38;;;7.45;;
39188;SDS011;24915;50.858;4.376;2023-04-01T18:31:51;31.65;;;14.45;;
39188;SDS011;24915;50.858;4.376;2023-04-01T18:37:19;38.70;;;17.15;;
39188;SDS011;24915;50.858;4.376;2023-04-01T18:45:59;5.97;;;5.47;;
39188;SDS011;24915;50.858;4.376;2023-04-01T18:48:33;7.00;;;6.00;;
39188;SDS011;24915;50.858;4.376;2023-04-01T18:56:41;6.78;;;6.03;;
39188;SDS011;24915;50.858;4.376;2023-04-01T19:01:52;9.55;;;7.20;;
39188;SDS011;24915;50.858;4.376;2023-04-01T19:04:33;10.40;;;7.70;;
39188;SDS011;24915;50.858;4.376;2023-04-01T19:10:17;16.52;;;9.77;;
39188;SDS011;24915;50.858;4.376;2023-04-01T19:15:44;17.90;;;10.05;;
39188;SDS011;24915;50.858;4.376;2023-04-01T19:18:31;14.27;;;10.55;;
39188;SDS011;24915;50.858;4.376;2023-04-01T19:21:01;17.42;;;11.60;;
39188;SDS011;24915;50.858;4.376;2023-04-01T19:23:50;17.45;;;11.68;;
39188;SDS011;24915;50.858;4.376;2023-04-01T19:32:08;24.98;;;16.30;;
39188;SDS011;24915;50.858;4.376;2023-04-01T19:37:40;24.40;;;15.87;;
39188;SDS011;24915;50.858;4.376;2023-04-01T19:50:36;30.48;;;18.33;;
39188;SDS011;24915;50.858;4.376;2023-04-01T20:01:28;25.27;;;16.85;;
39188;SDS011;24915;50.858;4.376;2023-04-01T20:04:01;31.63;;;18.65;;
39188;SDS011;24915;50.858;4.376;2023-04-01T20:06:36;29.95;;;18.55;;
39188;SDS011;24915;50.858;4.376;2023-04-01T20:09:32;26.55;;;18.25;;
39188;SDS011;24915;50.858;4.376;2023-04-01T20:14:43;27.13;;;17.40;;
39188;SDS011;24915;50.858;4.376;2023-04-01T20:19:45;26.73;;;18.70;;
39188;SDS011;24915;50.858;4.376;2023-04-01T20:39:47;29.92;;;17.55;;
39188;SDS011;24915;50.858;4.376;2023-04-01T20:44:39;32.67;;;16.50;;
39188;SDS011;24915;50.858;4.376;2023-04-01T20:50:15;28.58;;;15.13;;
39188;SDS011;24915;50.858;4.376;2023-04-01T20:53:14;26.25;;;16.10;;
39188;SDS011;24915;50.858;4.376;2023-04-01T20:59:16;30.58;;;16.98;;
39188;SDS011;24915;50.858;4.376;2023-04-01T21:12:40;31.45;;;19.67;;
39188;SDS011;24915;50.858;4.376;2023-04-01T21:15:29;36.22;;;20.27;;
39188;SDS011;24915;50.858;4.376;2023-04-01T21:24:28;42.45;;;20.13;;
39188;SDS011;24915;50.858;4.376;2023-04-01T21:27:20;36.33;;;19.63;;
39188;SDS011;24915;50.858;4.376;2023-04-01T21:33:08;36.88;;;20.27;;
39188;SDS011;24915;50.858;4.376;2023-04-01T21:36:13;33.70;;;18.67;;
39188;SDS011;24915;50.858;4.376;2023-04-01T21:39:01;35.08;;;19.67;;
39188;SDS011;24915;50.858;4.376;2023-04-01T21:44:54;40.10;;;20.70;;
39188;SDS011;24915;50.858;4.376;2023-04-01T22:09:28;35.47;;;18.50;;
39188;SDS011;24915;50.858;4.376;2023-04-01T22:22:58;26.27;;;18.13;;
39188;SDS011;24915;50.858;4.376;2023-04-01T22:28:19;23.27;;;16.80;;
39188;SDS011;24915;50.858;4.376;2023-04-01T22:30:58;20.70;;;16.67;;
39188;SDS011;24915;50.858;4.376;2023-04-01T22:33:38;21.42;;;17.35;;
39188;SDS011;24915;50.858;4.376;2023-04-01T22:47:36;25.25;;;18.40;;
39188;SDS011;24915;50.858;4.376;2023-04-01T22:55:38;26.65;;;19.92;;
39188;SDS011;24915;50.858;4.376;2023-04-01T22:58:11;27.55;;;21.33;;
39188;SDS011;24915;50.858;4.376;2023-04-01T23:00:59;28.27;;;21.58;;
39188;SDS011;24915;50.858;4.376;2023-04-01T23:03:31;28.33;;;20.85;;
39188;SDS011;24915;50.858;4.376;2023-04-01T23:05:59;26.75;;;20.40;;
39188;SDS011;24915;50.858;4.376;2023-04-01T23:11:04;22.73;;;18.73;;
39188;SDS011;24915;50.858;4.376;2023-04-01T23:13:44;22.05;;;17.88;;
39188;SDS011;24915;50.858;4.376;2023-04-01T23:16:13;20.02;;;16.50;;
39188;SDS011;24915;50.858;4.376;2023-04-01T23:21:24;19.15;;;16.38;;
39188;SDS011;24915;50.858;4.376;2023-04-01T23:24:19;22.95;;;17.80;;
39188;SDS011;24915;50.858;4.376;2023-04-01T23:26:53;23.42;;;18.30;;
39188;SDS011;24915;50.858;4.376;2023-04-01T23:29:23;20.63;;;17.73;;
39188;SDS011;24915;50.858;4.376;2023-04-01T23:31:57;21.30;;;17.98;;
39188;SDS011;24915;50.858;4.376;2023-04-01T23:34:37;22.30;;;18.00;;
39188;SDS011;24915;50.858;4.376;2023-04-01T23:37:04;26.77;;;18.65;;
39188;SDS011;24915;50.858;4.376;2023-04-01T23:39:36;22.75;;;18.75;;
39188;SDS011;24915;50.858;4.376;2023-04-01T23:44:50;23.65;;;18.63;;
39188;SDS011;24915;50.858;4.376;2023-04-01T23:47:20;25.27;;;18.95;;
39188;SDS011;24915;50.858;4.376;2023-04-01T23:52:49;28.50;;;20.63;;
39188;SDS011;24915;50.858;4.376;2023-04-01T23:55:24;27.70;;;20.33;;
39188;SDS011;24915;50.858;4.376;2023-04-01T23:58:12;26.33;;;20.10;;
